Observations for Trim Market St
| Time | AQI | Temp °C | Hum % | Pres Pa | CO μg/m³ | H₂S μg/m³ | NO μg/m³ | NO₂ μg/m³ | O₃ μg/m³ | SO₂ μg/m³ | PM1 μg/m³ | PM2.5 μg/m³ | PM10 μg/m³ |
|---|---|---|---|---|---|---|---|---|---|---|---|---|---|
| Monday 17 August 2026 | |||||||||||||
| 20:31 | 3 | 19.6 | 80 | 2,147,483,647 | 0.13 | 0 | 1.93 | 15.77 | 55.95 | 0 | 1.43 | 3.55 | 6.96 |
| 20:28 | 3 | 19.6 | 79 | 2,147,483,647 | 0.15 | 0 | 1.88 | 13.57 | 60.8 | 0 | 2.14 | 4.03 | 6.96 |
| 20:27 | 3 | 19.7 | 79 | 2,147,483,647 | 0.14 | 0.58 | 1.9 | 13.53 | 55.9 | 0 | 1.43 | 3.08 | 5.82 |
| 20:25 | 3 | 19.6 | 79 | 2,147,483,647 | 0.13 | 1.03 | 1.95 | 17.3 | 62.36 | 0 | 1.43 | 3.56 | 6.39 |
| 20:24 | 3 | 19.7 | 79 | 2,147,483,647 | 0.13 | 0.89 | 1.85 | 20.41 | 62.17 | 0 | 1.43 | 2.62 | 5.81 |
| 20:23 | 3 | 19.6 | 79 | 2,147,483,647 | 0.28 | 2.26 | 1.82 | 26.32 | 59.61 | 0 | 1.43 | 3.57 | 6.96 |
| 20:22 | 3 | 19.7 | 79 | 2,147,483,647 | 0.3 | 0.05 | 1.83 | 12.9 | 58.43 | 0 | 1.43 | 2.63 | 5.24 |
| 20:21 | 3 | 19.7 | 79 | 2,147,483,647 | 0.21 | 0.58 | 1.77 | 19.55 | 61.29 | 0 | 1.43 | 3.1 | 6.38 |
| 20:18 | 3 | 19.7 | 79 | 2,147,483,647 | 0.17 | 2.81 | 1.86 | 20.55 | 66.74 | 0 | 1.43 | 3.11 | 5.81 |
| 20:13 | 3 | 19.7 | 78 | 2,147,483,647 | 0.15 | 3.79 | 1.8 | 24.25 | 64.79 | 0 | 0.71 | 2.66 | 5.22 |
| 20:11 | 3 | 19.7 | 78 | 2,147,483,647 | 0.16 | 2.58 | 1.71 | 19.84 | 63.64 | 0 | 1.43 | 3.61 | 6.38 |
| 20:09 | 3 | 19.7 | 78 | 2,147,483,647 | 0.16 | 3.02 | 1.72 | 17.06 | 64.07 | 0 | 0.71 | 2.67 | 5.22 |
| 20:06 | 3 | 19.7 | 78 | 2,147,483,647 | 0.22 | 3.79 | 1.72 | 19.64 | 63.53 | 0 | 1.43 | 3.15 | 5.79 |
| 20:03 | 3 | 19.8 | 78 | 2,147,483,647 | 0.17 | 2.71 | 1.83 | 18.52 | 63.87 | 0 | 0.71 | 2.69 | 5.21 |
| 20:02 | 3 | 19.7 | 78 | 2,147,483,647 | 0.12 | 2.42 | 1.74 | 15.09 | 63.2 | 0 | 1.43 | 3.17 | 6.37 |
| 20:01 | 3 | 19.8 | 78 | 2,147,483,647 | 0.05 | 3.84 | 1.69 | 21.04 | 61.55 | 0 | 2.14 | 4.12 | 6.95 |
| 20:00 | 3 | 19.8 | 78 | 2,147,483,647 | 0.06 | 4.36 | 1.6 | 18.29 | 63.99 | 0 | 1.43 | 3.17 | 5.79 |
| 19:59 | 2 | 19.8 | 78 | 2,147,483,647 | 0.07 | 6.57 | 1.66 | 24.41 | 68.34 | 0 | 1.43 | 3.18 | 6.37 |
| 19:58 | 2 | 19.8 | 77 | 2,147,483,647 | 0.07 | 4.79 | 1.6 | 24.47 | 65.01 | 0 | 2.14 | 3.66 | 7.53 |
| 19:57 | 2 | 19.8 | 77 | 2,147,483,647 | 0.07 | 5.6 | 1.64 | 23.22 | 64.96 | 0 | 0 | 2.71 | 5.2 |